Time;durP1;ratioP1;P1;durP2;ratioP2;P2;SDS_P1;SDS_P2;PMS_P1;PMS_P2;Temp;Humidity;BMP_temperature;BMP_pressure;BME280_temperature;BME280_humidity;BME280_pressure;Samples;Min_cycle;Max_cycle;Signal;HPM_P1;HPM_P2
2023/01/23 00:01:27;;;;;;;13.03;11.30;;;;;;;0.26;100.00;99271.16;5054042;28;20229;-72
2023/01/23 00:03:54;;;;;;;14.47;11.47;;;;;;;0.37;100.00;99278.94;5053618;28;20194;-72
2023/01/23 00:06:21;;;;;;;13.50;11.73;;;;;;;0.33;100.00;99283.59;5053675;28;20669;-72
2023/01/23 00:08:47;;;;;;;13.30;11.67;;;;;;;0.31;100.00;99279.44;5053826;28;20228;-72
2023/01/23 00:11:19;;;;;;;13.17;11.40;;;;;;;0.23;100.00;99272.22;5053727;28;20582;-72
2023/01/23 00:13:46;;;;;;;13.57;11.27;;;;;;;0.38;100.00;99275.34;5053467;28;20217;-72
2023/01/23 00:16:15;;;;;;;14.57;12.00;;;;;;;0.28;100.00;99273.50;5053439;28;20205;-72
2023/01/23 00:18:42;;;;;;;13.70;12.07;;;;;;;0.37;100.00;99278.94;5053696;28;20551;-72
2023/01/23 00:21:11;;;;;;;14.17;11.77;;;;;;;0.34;100.00;99277.41;5053557;28;20232;-72
2023/01/23 00:23:41;;;;;;;13.73;11.43;;;;;;;0.40;100.00;99274.28;5053271;28;20676;-72
2023/01/23 00:26:10;;;;;;;13.60;12.20;;;;;;;0.38;100.00;99272.75;5053619;28;20212;-72
2023/01/23 00:28:37;;;;;;;14.93;11.53;;;;;;;0.36;100.00;99279.91;5052992;28;20205;-72
2023/01/23 00:31:09;;;;;;;14.07;11.80;;;;;;;0.32;100.00;99278.47;5053184;28;20213;-72
2023/01/23 00:33:35;;;;;;;14.00;11.77;;;;;;;0.37;100.00;99276.31;5053232;28;20659;-72
2023/01/23 00:36:03;;;;;;;13.83;11.23;;;;;;;0.37;100.00;99278.94;5053471;28;20214;-72
2023/01/23 00:38:29;;;;;;;13.43;11.63;;;;;;;0.28;100.00;99283.97;5053443;28;20438;-72
2023/01/23 00:40:55;;;;;;;12.93;11.50;;;;;;;0.43;100.00;99278.41;5053409;28;20236;-72
2023/01/23 00:43:23;;;;;;;12.40;11.10;;;;;;;0.33;100.00;99280.97;5053112;28;20211;-72
2023/01/23 00:45:50;;;;;;;12.27;10.97;;;;;;;0.37;100.00;99274.53;5053412;28;20213;-72
2023/01/23 00:48:17;;;;;;;11.50;10.23;;;;;;;0.32;100.00;99274.91;5053046;28;20220;-72
2023/01/23 00:50:43;;;;;;;11.50;10.30;;;;;;;0.27;100.00;99272.81;5053374;28;20208;-72
2023/01/23 00:53:09;;;;;;;11.30;9.97;;;;;;;0.26;100.00;99277.19;5053283;28;20221;-72
2023/01/23 00:55:36;;;;;;;10.57;9.47;;;;;;;0.32;100.00;99277.53;5053540;28;20212;-72
2023/01/23 00:58:02;;;;;;;11.10;9.30;;;;;;;0.35;100.00;99278.25;5053303;28;20571;-72
2023/01/23 01:00:29;;;;;;;12.63;10.60;;;;;;;0.27;100.00;99275.41;5053282;28;20213;-72
2023/01/23 01:02:55;;;;;;;11.00;9.63;;;;;;;0.37;100.00;99268.47;5053207;28;20221;-72
2023/01/23 01:05:21;;;;;;;11.13;9.67;;;;;;;0.30;100.00;99267.34;5053201;28;20208;-72
2023/01/23 01:07:48;;;;;;;11.17;9.47;;;;;;;0.33;100.00;99279.19;5052876;28;20213;-72
2023/01/23 01:10:15;;;;;;;11.10;9.80;;;;;;;0.25;100.00;99280.78;5053078;28;20202;-72
2023/01/23 01:12:41;;;;;;;10.83;9.63;;;;;;;0.31;100.00;99275.03;5053094;28;20233;-72
2023/01/23 01:15:09;;;;;;;11.00;9.67;;;;;;;0.24;100.00;99290.38;5053134;28;20209;-72
2023/01/23 01:17:36;;;;;;;10.80;9.23;;;;;;;0.35;100.00;99293.94;5053091;28;20554;-72
2023/01/23 01:20:05;;;;;;;12.17;10.20;;;;;;;0.24;100.00;99302.66;5053074;28;20201;-72
2023/01/23 01:22:32;;;;;;;10.27;9.17;;;;;;;0.35;100.00;99304.41;5052888;28;20237;-72
2023/01/23 01:24:58;;;;;;;11.57;9.63;;;;;;;0.35;100.00;99301.78;5052729;28;20216;-72
2023/01/23 01:27:24;;;;;;;11.60;10.40;;;;;;;0.28;100.00;99308.47;5053021;28;20297;-72
2023/01/23 01:29:51;;;;;;;11.40;10.03;;;;;;;0.32;100.00;99302.03;5052999;28;20202;-72
2023/01/23 01:32:17;;;;;;;12.17;9.80;;;;;;;0.45;100.00;99310.53;5052892;28;20225;-72
2023/01/23 01:34:44;;;;;;;12.97;10.27;;;;;;;0.41;100.00;99317.81;5052847;28;20208;-72
2023/01/23 01:37:10;;;;;;;12.70;11.40;;;;;;;0.32;100.00;99315.09;5052798;28;20216;-72
2023/01/23 01:39:36;;;;;;;12.67;10.33;;;;;;;0.35;100.00;99315.69;5053248;28;20586;-72
2023/01/23 01:42:03;;;;;;;11.43;10.20;;;;;;;0.33;100.00;99310.56;5056075;28;20596;-72
2023/01/23 01:44:56;;;;;;;11.10;9.93;;;;;;;0.41;100.00;99312.59;5056703;28;20217;-72
2023/01/23 01:47:23;;;;;;;10.93;9.80;;;;;;;0.43;100.00;99307.19;5056706;28;20216;-72
2023/01/23 01:49:52;;;;;;;12.47;11.17;;;;;;;0.42;100.00;99316.84;5056373;28;20216;-72
2023/01/23 01:52:20;;;;;;;11.70;9.63;;;;;;;0.36;100.00;99309.47;5055100;28;20221;-72
2023/01/23 01:54:55;;;;;;;12.37;10.50;;;;;;;0.42;100.00;99308.16;5056811;28;20552;-72
2023/01/23 01:57:30;;;;;;;13.33;10.47;;;;;;;0.32;100.00;99320.34;5055126;28;20216;-72
2023/01/23 02:00:15;;;;;;;11.83;10.57;;;;;;;0.43;100.00;99326.34;5055039;28;20197;-72
2023/01/23 02:02:46;;;;;;;11.07;9.80;;;;;;;0.37;100.00;99315.56;5056017;28;20228;-72
2023/01/23 02:05:21;;;;;;;11.17;10.00;;;;;;;0.31;100.00;99314.25;5055767;28;20284;-72
2023/01/23 02:08:05;;;;;;;11.20;9.93;;;;;;;0.45;100.00;99323.63;5056749;28;20208;-72
2023/01/23 02:10:33;;;;;;;11.77;10.03;;;;;;;0.45;100.00;99324.44;5056100;28;20193;-72
2023/01/23 02:13:22;;;;;;;12.43;10.67;;;;;;;0.39;100.00;99327.56;5055392;28;20263;-72
2023/01/23 02:15:49;;;;;;;12.57;10.40;;;;;;;0.44;100.00;99324.56;5055944;28;20199;-72
2023/01/23 02:18:15;;;;;;;12.90;10.97;;;;;;;0.41;100.00;99325.66;5056701;28;20205;-72
2023/01/23 02:20:42;;;;;;;11.97;10.67;;;;;;;0.36;100.00;99326.97;5056334;28;20217;-72
2023/01/23 02:23:37;;;;;;;11.67;10.47;;;;;;;0.43;100.00;99317.66;5055302;28;20229;-72
2023/01/23 02:26:07;;;;;;;11.57;10.17;;;;;;;0.47;100.00;99321.69;5055805;28;20193;-72
2023/01/23 02:28:50;;;;;;;13.37;10.97;;;;;;;0.40;100.00;99323.97;5055718;28;20206;-72
2023/01/23 02:31:17;;;;;;;11.87;10.57;;;;;;;0.42;100.00;99329.09;5055570;28;20231;-72
2023/01/23 02:33:47;;;;;;;12.90;11.27;;;;;;;0.35;100.00;99320.09;5055632;28;20201;-72
2023/01/23 02:36:14;;;;;;;12.27;10.47;;;;;;;0.31;100.00;99314.25;5055589;28;20185;-72
2023/01/23 02:38:49;;;;;;;12.77;10.70;;;;;;;0.41;100.00;99312.59;5055513;28;20212;-72
2023/01/23 02:41:20;;;;;;;12.50;10.40;;;;;;;0.38;100.00;99307.59;5055387;28;20275;-72
2023/01/23 02:43:48;;;;;;;12.17;10.83;;;;;;;0.45;100.00;99311.34;5055443;28;20197;-72
2023/01/23 02:46:17;;;;;;;12.40;10.63;;;;;;;0.56;100.00;99315.72;5055317;28;20217;-72
2023/01/23 02:48:44;;;;;;;12.10;10.73;;;;;;;0.45;100.00;99319.19;5055295;28;20209;-71
2023/01/23 02:51:10;;;;;;;11.50;10.17;;;;;;;0.36;100.00;99313.91;5054595;28;20609;-72
2023/01/23 02:53:37;;;;;;;13.60;11.47;;;;;;;0.30;100.00;99312.59;5055017;28;20220;-72
2023/01/23 02:56:03;;;;;;;12.90;11.50;;;;;;;0.46;100.00;99314.81;5055196;28;20209;-72
2023/01/23 03:01:13;;;;;;;12.40;11.10;;;;;;;0.51;100.00;99318.72;5055010;28;20668;-72
2023/01/23 03:03:41;;;;;;;13.07;11.20;;;;;;;0.52;100.00;99322.97;5054952;28;20220;-72
2023/01/23 03:06:07;;;;;;;13.83;11.67;;;;;;;0.47;100.00;99327.75;5054947;28;20263;-72
2023/01/23 03:08:35;;;;;;;12.90;11.33;;;;;;;0.34;100.00;99321.88;5054668;28;20669;-72
2023/01/23 03:11:03;;;;;;;12.57;11.03;;;;;;;0.33;100.00;99320.22;5054824;28;20208;-72
2023/01/23 03:13:30;;;;;;;13.93;11.97;;;;;;;0.28;100.00;99317.16;5054484;28;20219;-72
2023/01/23 03:15:57;;;;;;;14.00;11.53;;;;;;;0.27;100.00;99319.88;5054790;28;20205;-72
2023/01/23 03:18:26;;;;;;;13.50;11.70;;;;;;;0.48;100.00;99311.09;5055318;28;20201;-72
2023/01/23 03:20:53;;;;;;;14.07;11.70;;;;;;;0.42;100.00;99319.47;5054276;28;20237;-72
2023/01/23 03:23:19;;;;;;;14.93;11.20;;;;;;;0.46;100.00;99320.88;5054278;28;20711;-72
2023/01/23 03:25:47;;;;;;;16.37;12.27;;;;;;;0.49;100.00;99325.84;5054627;28;20205;-72
2023/01/23 03:30:54;;;;;;;13.67;12.10;;;;;;;0.36;100.00;99319.94;5053845;28;20193;-72
2023/01/23 03:33:21;;;;;;;14.23;12.20;;;;;;;0.38;100.00;99322.44;5054460;28;20205;-72
2023/01/23 03:35:47;;;;;;;14.03;12.23;;;;;;;0.33;100.00;99309.75;5053997;28;20210;-72
2023/01/23 03:38:16;;;;;;;14.53;12.00;;;;;;;0.39;100.00;99314.47;5054516;28;20205;-72
2023/01/23 03:43:31;;;;;;;12.67;11.00;;;;;;;0.36;100.00;99308.66;5054273;28;20242;-72
2023/01/23 03:45:58;;;;;;;14.20;12.17;;;;;;;0.43;100.00;99305.44;5054189;28;20209;-72
2023/01/23 03:48:25;;;;;;;13.27;11.77;;;;;;;0.36;100.00;99303.44;5054364;28;20201;-72
2023/01/23 03:50:52;;;;;;;13.60;11.60;;;;;;;0.44;100.00;99312.31;5054097;28;20568;-72
2023/01/23 03:53:18;;;;;;;15.30;12.83;;;;;;;0.47;100.00;99306.84;5054268;28;20212;-72
2023/01/23 03:55:46;;;;;;;15.10;12.67;;;;;;;0.36;100.00;99314.72;5054039;28;20205;-72
2023/01/23 03:58:13;;;;;;;15.23;12.93;;;;;;;0.42;100.00;99316.00;5053986;28;20218;-72
2023/01/23 04:00:39;;;;;;;13.93;11.83;;;;;;;0.28;100.00;99310.09;5053657;28;20683;-72
2023/01/23 04:03:05;;;;;;;14.63;11.77;;;;;;;0.32;100.00;99308.09;5052783;28;20684;-72
2023/01/23 04:05:32;;;;;;;15.03;13.20;;;;;;;0.31;100.00;99310.84;5053565;28;20576;-72
2023/01/23 04:07:58;;;;;;;15.40;12.70;;;;;;;0.32;100.00;99313.34;5053456;28;20573;-72
2023/01/23 04:10:24;;;;;;;16.53;13.83;;;;;;;0.28;100.00;99320.56;5053660;28;20221;-72
2023/01/23 04:12:51;;;;;;;16.67;12.77;;;;;;;0.23;100.00;99314.88;5053383;28;20237;-72
2023/01/23 04:15:18;;;;;;;16.67;13.13;;;;;;;0.33;100.00;99318.41;5053660;28;20228;-72
2023/01/23 04:17:44;;;;;;;16.53;13.50;;;;;;;0.35;100.00;99322.72;5053634;28;20205;-72
2023/01/23 04:20:11;;;;;;;15.73;12.57;;;;;;;0.43;100.00;99338.59;5053558;28;20216;-72
2023/01/23 04:22:38;;;;;;;14.90;11.50;;;;;;;0.59;100.00;99333.78;5053448;28;20229;-72
2023/01/23 04:25:06;;;;;;;14.47;12.10;;;;;;;0.40;100.00;99331.81;5053803;28;20205;-72
2023/01/23 04:27:32;;;;;;;15.47;12.10;;;;;;;0.38;100.00;99345.97;5053542;28;20205;-72
2023/01/23 04:29:59;;;;;;;14.63;12.10;;;;;;;0.36;100.00;99340.88;5053077;28;20209;-72
2023/01/23 04:32:25;;;;;;;15.47;12.53;;;;;;;0.39;100.00;99340.63;5052771;28;20649;-72
2023/01/23 04:34:52;;;;;;;13.90;12.40;;;;;;;0.49;100.00;99344.16;5052985;28;20664;-72
2023/01/23 04:37:18;;;;;;;15.70;12.67;;;;;;;0.47;100.00;99351.31;5053267;28;20204;-72
2023/01/23 04:39:45;;;;;;;15.20;12.67;;;;;;;0.42;100.00;99350.84;5053201;28;20542;-72
2023/01/23 04:42:11;;;;;;;16.17;13.57;;;;;;;0.47;100.00;99353.94;5052870;28;20252;-72
2023/01/23 04:44:37;;;;;;;16.87;13.97;;;;;;;0.38;100.00;99345.97;5053138;28;20224;-72
2023/01/23 04:47:04;;;;;;;15.90;13.23;;;;;;;0.37;100.00;99346.94;5053154;28;20205;-72
2023/01/23 04:49:30;;;;;;;15.40;12.67;;;;;;;0.49;100.00;99345.97;5053234;28;20297;-72
2023/01/23 04:51:56;;;;;;;14.90;12.07;;;;;;;0.54;100.00;99355.06;5053175;28;20221;-72
2023/01/23 04:54:23;;;;;;;14.60;12.87;;;;;;;0.52;100.00;99358.78;5053106;28;20205;-72
2023/01/23 04:56:49;;;;;;;15.50;12.63;;;;;;;0.52;100.00;99357.00;5053172;28;20205;-72
2023/01/23 04:59:16;;;;;;;14.90;12.87;;;;;;;0.54;100.00;99356.88;5052790;28;20691;-72
2023/01/23 05:01:43;;;;;;;15.50;13.20;;;;;;;0.42;100.00;99352.63;5053018;28;20298;-72
2023/01/23 05:04:10;;;;;;;16.97;13.53;;;;;;;0.40;100.00;99359.78;5052975;28;20208;-72
2023/01/23 05:06:36;;;;;;;16.37;13.43;;;;;;;0.35;100.00;99365.38;5052671;28;20209;-72
2023/01/23 05:09:03;;;;;;;17.17;14.23;;;;;;;0.49;100.00;99352.00;5052987;28;20216;-72
2023/01/23 05:11:30;;;;;;;18.20;13.73;;;;;;;0.49;100.00;99357.25;5053200;28;20235;-72
2023/01/23 05:13:57;;;;;;;17.37;13.40;;;;;;;0.46;100.00;99362.75;5052889;28;20297;-72
2023/01/23 05:16:23;;;;;;;15.83;13.57;;;;;;;0.45;100.00;99370.72;5055646;28;20213;-72
2023/01/23 05:18:49;;;;;;;16.00;13.40;;;;;;;0.50;100.00;99358.91;5056540;28;20665;-72
2023/01/23 05:21:16;;;;;;;15.20;12.43;;;;;;;0.50;100.00;99369.38;5056732;28;20225;-72
2023/01/23 05:23:42;;;;;;;17.63;12.80;;;;;;;0.49;100.00;99367.69;5056375;28;20233;-72
2023/01/23 05:26:08;;;;;;;15.77;13.10;;;;;;;0.58;100.00;99359.09;5056591;28;20236;-72
2023/01/23 05:28:35;;;;;;;14.50;12.17;;;;;;;0.53;100.00;99365.69;5056600;28;20211;-72
2023/01/23 05:31:01;;;;;;;16.07;13.00;;;;;;;0.50;100.00;99373.78;5056502;28;20205;-72
2023/01/23 05:33:27;;;;;;;14.73;12.43;;;;;;;0.45;100.00;99375.94;5056244;28;20223;-72
2023/01/23 05:35:59;;;;;;;16.67;13.13;;;;;;;0.43;100.00;99373.44;5057182;28;20205;-72
2023/01/23 05:38:25;;;;;;;14.53;12.87;;;;;;;0.52;100.00;99371.84;5056299;28;20186;-72
2023/01/23 05:40:52;;;;;;;16.93;13.50;;;;;;;0.49;100.00;99369.50;5056118;28;20206;-72
2023/01/23 05:43:19;;;;;;;16.13;12.93;;;;;;;0.49;100.00;99359.03;5055484;28;20225;-72
2023/01/23 05:45:45;;;;;;;16.53;13.13;;;;;;;0.48;100.00;99368.66;5055978;28;20212;-72
2023/01/23 05:48:11;;;;;;;14.47;12.00;;;;;;;0.56;100.00;99360.19;5055562;28;20213;-72
2023/01/23 05:50:38;;;;;;;14.40;12.23;;;;;;;0.52;100.00;99371.84;5055955;28;20220;-72
2023/01/23 05:53:04;;;;;;;16.40;12.77;;;;;;;0.53;100.00;99378.78;5055738;28;20217;-72
2023/01/23 05:55:30;;;;;;;15.43;12.37;;;;;;;0.63;100.00;99371.84;5055806;28;20208;-72
2023/01/23 05:57:57;;;;;;;15.93;12.87;;;;;;;0.57;100.00;99367.91;5055535;28;20209;-72
2023/01/23 06:00:23;;;;;;;14.40;11.97;;;;;;;0.52;100.00;99372.69;5055667;28;20201;-72
2023/01/23 06:02:49;;;;;;;13.97;12.33;;;;;;;0.57;100.00;99383.63;5055505;28;20225;-72
2023/01/23 06:05:16;;;;;;;16.57;12.90;;;;;;;0.70;100.00;99378.22;5055230;28;20672;-72
2023/01/23 06:07:43;;;;;;;15.20;11.83;;;;;;;0.71;100.00;99385.94;5055522;28;20206;-72
2023/01/23 06:10:10;;;;;;;14.63;12.03;;;;;;;0.64;100.00;99386.56;5055399;28;20686;-72
2023/01/23 06:12:36;;;;;;;13.53;11.80;;;;;;;0.62;100.00;99391.13;5055642;28;20243;-72
2023/01/23 06:15:03;;;;;;;14.90;12.00;;;;;;;0.59;100.00;99391.34;5054779;28;20668;-72
2023/01/23 06:17:29;;;;;;;17.53;11.80;;;;;;;0.77;100.00;99395.09;5055005;28;20592;-72
2023/01/23 06:19:55;;;;;;;14.17;11.27;;;;;;;0.82;100.00;99385.91;5056045;28;20641;-72
2023/01/23 06:22:22;;;;;;;14.07;11.70;;;;;;;0.69;100.00;99379.16;5055086;28;20681;-72
2023/01/23 06:24:48;;;;;;;13.07;11.13;;;;;;;0.69;100.00;99384.41;5054981;28;20221;-72
2023/01/23 06:27:14;;;;;;;16.13;13.40;;;;;;;0.60;100.00;99387.78;5054140;28;20213;-72
2023/01/23 06:29:41;;;;;;;14.10;11.83;;;;;;;0.58;100.00;99397.53;5055774;28;20296;-72
2023/01/23 06:32:07;;;;;;;15.90;13.03;;;;;;;0.61;100.00;99402.50;5054905;28;20225;-72
2023/01/23 06:34:33;;;;;;;13.70;11.40;;;;;;;0.64;100.00;99402.28;5054888;28;20566;-72
2023/01/23 06:37:00;;;;;;;15.77;11.87;;;;;;;0.57;100.00;99406.31;5054605;28;20201;-72
2023/01/23 06:39:26;;;;;;;18.17;12.83;;;;;;;0.52;100.00;99414.56;5054986;28;20205;-72
2023/01/23 06:41:53;;;;;;;16.77;11.93;;;;;;;0.57;100.00;99425.47;5054503;28;20225;-72
2023/01/23 06:44:19;;;;;;;16.03;12.27;;;;;;;0.51;100.00;99427.75;5054443;28;20233;-72
2023/01/23 06:46:45;;;;;;;14.17;11.80;;;;;;;0.57;100.00;99429.88;5054076;28;20211;-72
2023/01/23 06:49:12;;;;;;;15.57;11.93;;;;;;;0.50;100.00;99431.34;5054695;28;20205;-72
2023/01/23 06:51:38;;;;;;;14.27;12.17;;;;;;;0.57;100.00;99435.09;5054524;28;20402;-72
2023/01/23 06:54:04;;;;;;;14.47;11.60;;;;;;;0.56;100.00;99444.75;5054443;28;20661;-72
2023/01/23 06:56:31;;;;;;;15.37;11.80;;;;;;;0.55;100.00;99435.25;5054647;28;20224;-72
2023/01/23 06:58:57;;;;;;;15.83;12.17;;;;;;;0.64;100.00;99437.13;5054007;28;20209;-72
2023/01/23 07:01:25;;;;;;;14.60;12.10;;;;;;;0.54;100.00;99457.13;5053553;28;20684;-72
2023/01/23 07:03:51;;;;;;;15.20;12.30;;;;;;;0.62;100.00;99453.91;5054421;28;20271;-72
2023/01/23 07:06:18;;;;;;;15.50;12.03;;;;;;;0.63;100.00;99453.75;5055028;28;20209;-72
2023/01/23 07:08:44;;;;;;;14.90;12.57;;;;;;;0.58;100.00;99452.50;5054394;28;20226;-72
2023/01/23 07:11:11;;;;;;;15.47;12.50;;;;;;;0.64;100.00;99455.47;5054319;28;20308;-72
2023/01/23 07:13:37;;;;;;;15.73;12.57;;;;;;;0.57;100.00;99459.50;5053833;28;20220;-72
2023/01/23 07:16:04;;;;;;;15.60;12.47;;;;;;;0.60;100.00;99463.66;5054097;28;20201;-72
2023/01/23 07:18:31;;;;;;;15.17;12.23;;;;;;;0.66;100.00;99471.84;5054309;28;20551;-72
2023/01/23 07:20:57;;;;;;;17.17;13.30;;;;;;;0.57;100.00;99463.88;5054220;28;20213;-72
2023/01/23 07:23:24;;;;;;;19.00;13.77;;;;;;;0.59;100.00;99473.31;5053931;28;20694;-72
2023/01/23 07:25:51;;;;;;;17.40;13.67;;;;;;;0.63;100.00;99472.09;5054068;28;20213;-72
2023/01/23 07:28:17;;;;;;;17.10;13.40;;;;;;;0.56;100.00;99475.31;5053745;28;20312;-72
2023/01/23 07:30:43;;;;;;;16.20;12.90;;;;;;;0.57;100.00;99474.34;5053532;28;20202;-72
2023/01/23 07:33:12;;;;;;;15.93;12.10;;;;;;;0.70;100.00;99469.81;5052978;28;20631;-70
2023/01/23 07:35:39;;;;;;;18.77;13.90;;;;;;;0.61;100.00;99481.00;5053650;28;20255;-70
2023/01/23 07:38:05;;;;;;;15.00;11.90;;;;;;;0.71;100.00;99476.72;5053159;28;20288;-72
2023/01/23 07:40:32;;;;;;;19.57;13.83;;;;;;;0.68;100.00;99472.56;5053790;28;20209;-72
2023/01/23 07:42:58;;;;;;;16.57;12.40;;;;;;;0.78;100.00;99476.13;5053518;28;20240;-72
2023/01/23 07:45:25;;;;;;;17.50;13.20;;;;;;;0.78;100.00;99481.34;5053682;28;20640;-72
2023/01/23 07:47:51;;;;;;;17.37;12.90;;;;;;;0.86;100.00;99480.72;5053848;28;20702;-72
2023/01/23 07:50:20;;;;;;;16.67;13.07;;;;;;;0.80;100.00;99470.75;5053570;28;20252;-72
2023/01/23 07:52:46;;;;;;;18.37;12.93;;;;;;;0.77;100.00;99471.81;5053524;28;20312;-72
2023/01/23 07:55:13;;;;;;;18.63;13.63;;;;;;;0.84;100.00;99482.63;5053580;28;20205;-72
2023/01/23 07:57:39;;;;;;;18.17;14.73;;;;;;;0.80;100.00;99476.00;5053460;28;20208;-72
2023/01/23 08:00:06;;;;;;;18.20;12.03;;;;;;;0.90;100.00;99469.06;5054254;28;20202;-72
2023/01/23 08:02:33;;;;;;;17.93;13.97;;;;;;;0.79;100.00;99475.16;5053329;28;20260;-73
2023/01/23 08:04:59;;;;;;;18.17;13.33;;;;;;;0.83;100.00;99471.34;5053346;28;20209;-72
2023/01/23 08:07:25;;;;;;;19.60;13.77;;;;;;;0.83;100.00;99468.72;5053371;28;20255;-73
2023/01/23 08:09:52;;;;;;;20.63;14.67;;;;;;;0.83;100.00;99473.09;5053113;28;20212;-73
2023/01/23 08:12:19;;;;;;;18.50;13.03;;;;;;;0.95;100.00;99479.97;5052895;28;20233;-74
2023/01/23 08:14:47;;;;;;;19.63;14.37;;;;;;;0.86;100.00;99465.84;5053026;28;20197;-73
2023/01/23 08:17:14;;;;;;;17.47;13.23;;;;;;;0.95;100.00;99474.75;5053289;28;20292;-73
2023/01/23 08:19:40;;;;;;;17.93;14.17;;;;;;;1.00;100.00;99473.44;5053500;28;20229;-73
2023/01/23 08:22:06;;;;;;;17.37;13.93;;;;;;;1.00;100.00;99468.19;5053632;28;20225;-72
2023/01/23 08:24:33;;;;;;;16.23;13.27;;;;;;;1.11;100.00;99477.75;5052907;28;20228;-73
2023/01/23 08:26:59;;;;;;;16.63;13.47;;;;;;;1.07;100.00;99476.38;5053665;28;20213;-72
2023/01/23 08:29:26;;;;;;;17.10;13.33;;;;;;;1.01;100.00;99469.84;5053006;28;20212;-73
2023/01/23 08:31:53;;;;;;;18.23;13.60;;;;;;;1.07;100.00;99479.81;5053160;28;20225;-73
2023/01/23 08:34:22;;;;;;;17.87;12.37;;;;;;;1.17;100.00;99479.91;5052833;28;20560;-73
2023/01/23 08:36:49;;;;;;;17.60;13.17;;;;;;;0.97;100.00;99470.19;5052699;28;20232;-73
2023/01/23 08:39:19;;;;;;;15.97;13.17;;;;;;;1.01;100.00;99464.63;5052821;28;20668;-72
2023/01/23 08:41:46;;;;;;;16.80;12.30;;;;;;;1.00;100.00;99473.44;5053011;28;20263;-72
2023/01/23 08:44:13;;;;;;;17.57;12.13;;;;;;;1.11;100.00;99470.75;5052738;28;20602;-72
2023/01/23 08:46:39;;;;;;;15.63;12.53;;;;;;;1.09;100.00;99469.22;5053114;28;20212;-72
2023/01/23 08:49:06;;;;;;;18.03;12.73;;;;;;;1.12;100.00;99461.13;5053191;28;20208;-72
2023/01/23 08:51:32;;;;;;;16.27;11.57;;;;;;;1.12;100.00;99461.13;5056795;28;20320;-72
2023/01/23 08:53:59;;;;;;;15.70;11.93;;;;;;;1.16;100.00;99475.59;5056639;28;20541;-72
2023/01/23 08:56:25;;;;;;;16.13;12.20;;;;;;;1.20;100.00;99466.53;5056576;28;20567;-72
2023/01/23 08:58:52;;;;;;;17.10;11.90;;;;;;;1.32;100.00;99462.91;5056772;28;20209;-72
2023/01/23 09:01:21;;;;;;;15.17;10.57;;;;;;;1.47;100.00;99461.63;5056752;28;20304;-72
2023/01/23 09:03:47;;;;;;;15.07;11.33;;;;;;;1.59;100.00;99476.34;5056504;28;20227;-72
2023/01/23 09:06:16;;;;;;;16.17;11.30;;;;;;;1.63;100.00;99467.28;5056791;28;20231;-72
2023/01/23 09:08:43;;;;;;;17.07;11.60;;;;;;;1.56;100.00;99471.34;5057247;28;20223;-71
2023/01/23 09:11:11;;;;;;;14.10;10.73;;;;;;;1.40;100.00;99468.34;5056802;28;20208;-72
2023/01/23 09:13:38;;;;;;;13.10;10.53;;;;;;;1.34;100.00;99468.84;5056630;28;20211;-72
2023/01/23 09:16:07;;;;;;;12.93;9.70;;;;;;;1.31;100.00;99461.25;5056803;28;20212;-71
2023/01/23 09:18:33;;;;;;;14.77;10.47;;;;;;;1.39;100.00;99480.63;5056659;28;20206;-72
2023/01/23 09:20:59;;;;;;;13.67;9.43;;;;;;;1.43;100.00;99476.78;5056378;28;20217;-72
2023/01/23 09:23:26;;;;;;;12.53;8.80;;;;;;;1.45;100.00;99482.75;5056544;28;20221;-72
2023/01/23 09:25:53;;;;;;;10.50;8.37;;;;;;;1.56;100.00;99479.22;5056550;28;20206;-72
2023/01/23 09:28:19;;;;;;;11.63;9.03;;;;;;;1.51;100.00;99489.25;5055954;28;20209;-72
2023/01/23 09:30:45;;;;;;;11.70;9.07;;;;;;;1.51;100.00;99490.09;5055895;28;20206;-72
2023/01/23 09:33:12;;;;;;;12.00;9.60;;;;;;;1.43;100.00;99479.41;5056291;28;20228;-71
2023/01/23 09:35:38;;;;;;;11.17;9.07;;;;;;;1.47;100.00;99486.06;5056206;28;20215;-71
2023/01/23 09:38:06;;;;;;;10.43;8.00;;;;;;;1.54;100.00;99486.38;5056315;28;20213;-71
2023/01/23 09:40:48;;;;;;;11.27;8.57;;;;;;;1.44;100.00;99490.72;5056265;28;20209;-72
2023/01/23 09:43:23;;;;;;;9.73;7.47;;;;;;;1.39;100.00;99487.66;5055974;28;20225;-71
2023/01/23 09:46:22;;;;;;;11.13;8.43;;;;;;;1.35;100.00;99499.34;5056197;28;20205;-72
2023/01/23 09:49:00;;;;;;;9.70;7.97;;;;;;;1.41;100.00;99481.34;5055863;28;20668;-71
2023/01/23 09:51:39;;;;;;;10.60;8.70;;;;;;;1.39;100.00;99479.81;5054434;28;20224;-71
2023/01/23 09:54:18;;;;;;;12.77;9.43;;;;;;;1.35;100.00;99494.13;5054878;28;20193;-72
2023/01/23 09:56:49;;;;;;;12.50;9.10;;;;;;;1.34;100.00;99490.66;5054957;28;20190;-72
2023/01/23 09:59:31;;;;;;;11.97;8.67;;;;;;;1.47;100.00;99488.69;5055525;28;20548;-71
2023/01/23 10:01:58;;;;;;;12.63;9.37;;;;;;;1.50;100.00;99498.06;5053378;28;20225;-72
2023/01/23 10:04:24;;;;;;;12.20;9.43;;;;;;;1.59;100.00;99499.94;5055655;28;20225;-73
2023/01/23 10:07:15;;;;;;;12.27;8.87;;;;;;;1.69;100.00;99492.97;5055633;28;20201;-73
2023/01/23 10:10:04;;;;;;;12.30;9.67;;;;;;;1.86;100.00;99495.00;5054592;28;20189;-72
2023/01/23 10:12:52;;;;;;;12.17;9.80;;;;;;;2.08;100.00;99490.41;5055211;28;20229;-73
2023/01/23 10:15:36;;;;;;;13.57;9.83;;;;;;;2.16;100.00;99492.41;5055486;28;20665;-73
2023/01/23 10:18:08;;;;;;;12.57;8.73;;;;;;;2.10;100.00;99492.91;5055309;28;20537;-72
2023/01/23 10:21:03;;;;;;;10.90;8.97;;;;;;;2.04;100.00;99496.06;5055660;28;20193;-72
2023/01/23 10:23:56;;;;;;;11.53;8.93;;;;;;;2.08;100.00;99505.34;5055732;28;20229;-72
2023/01/23 10:26:27;;;;;;;11.00;8.73;;;;;;;2.04;100.00;99490.81;5054390;28;20193;-72
2023/01/23 10:29:02;;;;;;;13.23;10.23;;;;;;;2.17;100.00;99484.38;5055132;28;20632;-72
2023/01/23 10:31:42;;;;;;;12.03;9.63;;;;;;;2.25;100.00;99487.19;5054210;28;20232;-72
2023/01/23 10:34:11;;;;;;;12.67;9.17;;;;;;;2.48;97.51;99486.03;5055502;28;20190;-72
2023/01/23 10:36:37;;;;;;;10.67;8.77;;;;;;;2.55;95.15;99484.53;5055364;28;20206;-72
2023/01/23 10:39:14;;;;;;;11.27;9.03;;;;;;;2.58;94.54;99488.69;5055306;28;20216;-72
2023/01/23 10:41:41;;;;;;;11.43;8.40;;;;;;;2.41;94.84;99494.56;5055022;28;20232;-73
2023/01/23 10:44:16;;;;;;;10.93;8.67;;;;;;;2.14;96.37;99494.31;5054815;28;20312;-72
2023/01/23 10:46:59;;;;;;;10.73;8.57;;;;;;;2.15;98.37;99485.47;5053337;28;20192;-72
2023/01/23 10:49:35;;;;;;;10.23;8.37;;;;;;;2.07;97.57;99485.31;5054436;28;20193;-72
2023/01/23 10:52:01;;;;;;;10.37;8.57;;;;;;;2.04;98.59;99488.19;5054516;28;20319;-72
2023/01/23 10:54:28;;;;;;;11.57;9.07;;;;;;;1.96;99.57;99482.75;5054843;28;20566;-72
2023/01/23 10:57:23;;;;;;;10.40;8.57;;;;;;;1.84;98.78;99475.94;5054592;28;20228;-72
2023/01/23 11:00:17;;;;;;;12.70;9.40;;;;;;;1.72;100.00;99474.34;5054728;28;20194;-70
2023/01/23 11:02:44;;;;;;;12.27;9.10;;;;;;;1.74;99.83;99475.88;5054881;28;20692;-70
2023/01/23 11:05:40;;;;;;;13.20;9.67;;;;;;;1.81;100.00;99471.78;5054486;28;20548;-70
2023/01/23 11:08:27;;;;;;;12.67;9.10;;;;;;;1.74;99.02;99468.03;5054248;28;20201;-70
2023/01/23 11:11:17;;;;;;;12.63;9.37;;;;;;;1.87;99.47;99463.41;5054448;28;20205;-70
2023/01/23 11:13:45;;;;;;;11.73;8.63;;;;;;;1.85;100.00;99469.75;5053652;28;20217;-71
2023/01/23 11:16:23;;;;;;;12.23;8.23;;;;;;;1.92;96.90;99463.00;5054311;28;20205;-71
2023/01/23 11:19:08;;;;;;;12.20;9.67;;;;;;;1.97;99.72;99461.66;5054697;28;20284;-71
2023/01/23 11:21:50;;;;;;;13.13;9.93;;;;;;;2.09;100.00;99458.00;5054154;28;20221;-72
2023/01/23 11:24:21;;;;;;;13.20;9.70;;;;;;;2.02;98.20;99459.47;5053782;28;20228;-71
2023/01/23 11:26:57;;;;;;;14.60;10.87;;;;;;;2.03;99.85;99447.19;5053730;28;20201;-71
2023/01/23 11:29:27;;;;;;;11.90;9.50;;;;;;;2.16;97.70;99439.94;5052402;28;20193;-71
2023/01/23 11:32:10;;;;;;;12.30;9.33;;;;;;;1.83;98.63;99448.06;5053754;28;20261;-71
2023/01/23 11:34:49;;;;;;;13.00;9.20;;;;;;;2.18;98.64;99443.25;5053854;28;20194;-72
2023/01/23 11:37:18;;;;;;;13.70;10.07;;;;;;;2.03;99.08;99445.38;5053506;28;20189;-72